sensor_id;sensor_type;location;lat;lon;timestamp;noise_LAeq;noise_LA_min;noise_LA_max;noise_LA01;noise_LA95
69670;Laerm;66535;52.370;4.832;2023-04-24T00:00:04;56.29;52.80;65.32;;
69670;Laerm;66535;52.370;4.832;2023-04-24T00:00:37;58.16;54.19;77.73;;
69670;Laerm;66535;52.370;4.832;2023-04-24T00:01:11;58.14;53.93;75.81;;
69670;Laerm;66535;52.370;4.832;2023-04-24T00:01:44;57.59;54.04;71.90;;
69670;Laerm;66535;52.370;4.832;2023-04-24T00:02:16;57.64;54.08;70.75;;
69670;Laerm;66535;52.370;4.832;2023-04-24T00:02:47;59.27;54.76;83.10;;
69670;Laerm;66535;52.370;4.832;2023-04-24T00:03:19;58.70;54.27;81.04;;
69670;Laerm;66535;52.370;4.832;2023-04-24T00:03:52;57.87;54.25;70.43;;
69670;Laerm;66535;52.370;4.832;2023-04-24T00:04:24;57.30;53.87;64.44;;
69670;Laerm;66535;52.370;4.832;2023-04-24T00:04:56;57.97;54.53;69.24;;
69670;Laerm;66535;52.370;4.832;2023-04-24T00:05:33;59.44;54.31;80.56;;
69670;Laerm;66535;52.370;4.832;2023-04-24T00:06:06;59.94;54.69;79.67;;
69670;Laerm;66535;52.370;4.832;2023-04-24T00:06:38;61.02;55.42;78.58;;
69670;Laerm;66535;52.370;4.832;2023-04-24T00:07:13;60.09;55.37;78.44;;
69670;Laerm;66535;52.370;4.832;2023-04-24T00:07:45;60.11;54.56;76.23;;
69670;Laerm;66535;52.370;4.832;2023-04-24T00:08:16;58.27;54.79;70.93;;
69670;Laerm;66535;52.370;4.832;2023-04-24T00:08:48;57.80;54.78;69.67;;
69670;Laerm;66535;52.370;4.832;2023-04-24T00:09:20;60.77;54.17;83.35;;
69670;Laerm;66535;52.370;4.832;2023-04-24T00:09:54;57.48;53.79;68.39;;
69670;Laerm;66535;52.370;4.832;2023-04-24T00:10:26;56.83;53.20;68.85;;
69670;Laerm;66535;52.370;4.832;2023-04-24T00:10:57;58.06;53.62;76.00;;
69670;Laerm;66535;52.370;4.832;2023-04-24T00:11:29;58.87;53.23;77.06;;
69670;Laerm;66535;52.370;4.832;2023-04-24T00:12:01;58.13;52.52;77.77;;
69670;Laerm;66535;52.370;4.832;2023-04-24T00:12:35;60.03;53.62;73.50;;
69670;Laerm;66535;52.370;4.832;2023-04-24T00:13:06;60.65;53.44;81.70;;
69670;Laerm;66535;52.370;4.832;2023-04-24T00:13:39;58.91;52.61;78.68;;
69670;Laerm;66535;52.370;4.832;2023-04-24T00:14:10;58.59;52.88;76.48;;
69670;Laerm;66535;52.370;4.832;2023-04-24T00:14:41;58.27;53.00;75.03;;
69670;Laerm;66535;52.370;4.832;2023-04-24T00:15:14;59.24;52.06;79.74;;
69670;Laerm;66535;52.370;4.832;2023-04-24T00:15:45;60.35;52.08;86.97;;
69670;Laerm;66535;52.370;4.832;2023-04-24T00:16:16;56.88;52.26;75.48;;
69670;Laerm;66535;52.370;4.832;2023-04-24T00:16:48;59.51;53.43;78.71;;
69670;Laerm;66535;52.370;4.832;2023-04-24T00:17:19;61.88;54.23;84.95;;
69670;Laerm;66535;52.370;4.832;2023-04-24T00:17:51;61.90;52.54;86.01;;
69670;Laerm;66535;52.370;4.832;2023-04-24T00:18:24;59.10;52.42;80.54;;
69670;Laerm;66535;52.370;4.832;2023-04-24T00:18:55;59.24;52.74;84.00;;
69670;Laerm;66535;52.370;4.832;2023-04-24T00:19:26;58.18;53.28;78.13;;
69670;Laerm;66535;52.370;4.832;2023-04-24T00:19:59;60.98;54.19;80.56;;
69670;Laerm;66535;52.370;4.832;2023-04-24T00:20:30;59.08;54.03;75.45;;
69670;Laerm;66535;52.370;4.832;2023-04-24T00:21:03;58.63;53.63;77.95;;
69670;Laerm;66535;52.370;4.832;2023-04-24T00:21:37;58.01;53.63;72.28;;
69670;Laerm;66535;52.370;4.832;2023-04-24T00:22:08;60.00;53.03;82.55;;
69670;Laerm;66535;52.370;4.832;2023-04-24T00:22:39;61.34;53.82;81.89;;
69670;Laerm;66535;52.370;4.832;2023-04-24T00:23:12;59.33;53.02;80.82;;
69670;Laerm;66535;52.370;4.832;2023-04-24T00:23:46;57.30;52.28;77.98;;
69670;Laerm;66535;52.370;4.832;2023-04-24T00:24:17;56.82;52.87;71.49;;
69670;Laerm;66535;52.370;4.832;2023-04-24T00:24:50;58.67;52.67;75.98;;
69670;Laerm;66535;52.370;4.832;2023-04-24T00:25:21;60.43;53.83;77.97;;
69670;Laerm;66535;52.370;4.832;2023-04-24T00:25:52;60.60;53.00;79.37;;
69670;Laerm;66535;52.370;4.832;2023-04-24T00:26:23;60.28;53.73;78.44;;
69670;Laerm;66535;52.370;4.832;2023-04-24T00:26:56;60.51;54.20;83.60;;
69670;Laerm;66535;52.370;4.832;2023-04-24T00:27:27;58.59;53.92;71.72;;
69670;Laerm;66535;52.370;4.832;2023-04-24T00:27:58;60.05;54.26;75.43;;
69670;Laerm;66535;52.370;4.832;2023-04-24T00:28:29;63.86;54.26;86.79;;
69670;Laerm;66535;52.370;4.832;2023-04-24T00:29:02;59.84;53.68;77.06;;
69670;Laerm;66535;52.370;4.832;2023-04-24T00:29:33;61.00;54.95;81.76;;
69670;Laerm;66535;52.370;4.832;2023-04-24T00:30:05;61.73;54.58;81.90;;
69670;Laerm;66535;52.370;4.832;2023-04-24T00:30:38;61.30;55.05;80.62;;
69670;Laerm;66535;52.370;4.832;2023-04-24T00:31:09;61.28;54.46;82.94;;
69670;Laerm;66535;52.370;4.832;2023-04-24T00:31:40;60.91;53.47;81.34;;
69670;Laerm;66535;52.370;4.832;2023-04-24T00:32:12;61.18;53.04;84.07;;
69670;Laerm;66535;52.370;4.832;2023-04-24T00:32:44;59.61;54.05;81.56;;
69670;Laerm;66535;52.370;4.832;2023-04-24T00:33:15;61.33;54.30;83.73;;
69670;Laerm;66535;52.370;4.832;2023-04-24T00:33:47;61.19;54.27;84.02;;
69670;Laerm;66535;52.370;4.832;2023-04-24T00:34:19;58.48;53.28;74.92;;
69670;Laerm;66535;52.370;4.832;2023-04-24T00:34:50;59.95;55.09;75.43;;
69670;Laerm;66535;52.370;4.832;2023-04-24T00:35:21;60.35;54.81;75.30;;
69670;Laerm;66535;52.370;4.832;2023-04-24T00:35:54;60.01;54.96;77.47;;
69670;Laerm;66535;52.370;4.832;2023-04-24T00:36:25;57.74;53.59;71.09;;
69670;Laerm;66535;52.370;4.832;2023-04-24T00:36:59;59.49;53.69;76.76;;
69670;Laerm;66535;52.370;4.832;2023-04-24T00:37:31;62.17;54.33;84.07;;
69670;Laerm;66535;52.370;4.832;2023-04-24T00:38:02;60.47;53.70;79.82;;
69670;Laerm;66535;52.370;4.832;2023-04-24T00:38:33;61.46;54.12;80.03;;
69670;Laerm;66535;52.370;4.832;2023-04-24T00:39:06;60.53;55.64;78.96;;
69670;Laerm;66535;52.370;4.832;2023-04-24T00:39:39;59.56;55.55;74.10;;
69670;Laerm;66535;52.370;4.832;2023-04-24T00:40:11;59.86;54.58;76.72;;
69670;Laerm;66535;52.370;4.832;2023-04-24T00:40:43;60.51;54.96;76.74;;
69670;Laerm;66535;52.370;4.832;2023-04-24T00:41:14;57.94;53.03;75.36;;
69670;Laerm;66535;52.370;4.832;2023-04-24T00:41:46;61.77;53.08;82.89;;
69670;Laerm;66535;52.370;4.832;2023-04-24T00:42:19;64.67;59.10;81.38;;
69670;Laerm;66535;52.370;4.832;2023-04-24T00:42:51;66.41;58.63;91.48;;
69670;Laerm;66535;52.370;4.832;2023-04-24T00:43:22;62.40;55.63;82.74;;
69670;Laerm;66535;52.370;4.832;2023-04-24T00:43:54;63.79;55.39;84.59;;
69670;Laerm;66535;52.370;4.832;2023-04-24T00:44:26;64.05;56.38;80.82;;
69670;Laerm;66535;52.370;4.832;2023-04-24T00:44:57;63.25;57.87;78.36;;
69670;Laerm;66535;52.370;4.832;2023-04-24T00:45:30;62.04;56.84;78.15;;
69670;Laerm;66535;52.370;4.832;2023-04-24T00:46:02;65.01;58.02;81.91;;
69670;Laerm;66535;52.370;4.832;2023-04-24T00:46:33;66.57;58.97;85.61;;
69670;Laerm;66535;52.370;4.832;2023-04-24T00:47:04;67.90;61.36;85.92;;
69670;Laerm;66535;52.370;4.832;2023-04-24T00:47:36;62.87;57.31;78.66;;
69670;Laerm;66535;52.370;4.832;2023-04-24T00:48:08;64.44;58.35;87.03;;
69670;Laerm;66535;52.370;4.832;2023-04-24T00:48:40;62.61;56.15;73.24;;
69670;Laerm;66535;52.370;4.832;2023-04-24T00:49:12;61.49;55.42;81.67;;
69670;Laerm;66535;52.370;4.832;2023-04-24T00:49:44;60.49;55.95;77.35;;
69670;Laerm;66535;52.370;4.832;2023-04-24T00:50:15;60.88;55.27;77.42;;
69670;Laerm;66535;52.370;4.832;2023-04-24T00:50:47;59.67;54.57;74.37;;
69670;Laerm;66535;52.370;4.832;2023-04-24T00:51:19;58.96;54.01;72.49;;
69670;Laerm;66535;52.370;4.832;2023-04-24T00:51:50;57.23;50.64;76.17;;
69670;Laerm;66535;52.370;4.832;2023-04-24T00:52:23;57.98;51.89;83.34;;
69670;Laerm;66535;52.370;4.832;2023-04-24T00:52:55;58.73;52.53;78.28;;
69670;Laerm;66535;52.370;4.832;2023-04-24T00:53:27;57.36;53.41;75.07;;
69670;Laerm;66535;52.370;4.832;2023-04-24T00:53:58;58.95;52.80;79.50;;
69670;Laerm;66535;52.370;4.832;2023-04-24T00:54:29;58.62;53.97;73.07;;
69670;Laerm;66535;52.370;4.832;2023-04-24T00:55:01;59.29;54.56;76.26;;
69670;Laerm;66535;52.370;4.832;2023-04-24T00:55:33;57.11;53.31;69.40;;
69670;Laerm;66535;52.370;4.832;2023-04-24T00:56:04;59.25;52.15;79.18;;
69670;Laerm;66535;52.370;4.832;2023-04-24T00:56:36;58.96;54.10;75.61;;
69670;Laerm;66535;52.370;4.832;2023-04-24T00:57:08;58.34;52.33;78.46;;
69670;Laerm;66535;52.370;4.832;2023-04-24T00:57:39;59.64;52.71;86.24;;
69670;Laerm;66535;52.370;4.832;2023-04-24T00:58:11;56.32;52.35;73.99;;
69670;Laerm;66535;52.370;4.832;2023-04-24T00:58:43;57.91;52.21;74.38;;
69670;Laerm;66535;52.370;4.832;2023-04-24T00:59:16;56.84;50.54;75.70;;
69670;Laerm;66535;52.370;4.832;2023-04-24T00:59:48;57.17;51.62;73.59;;
69670;Laerm;66535;52.370;4.832;2023-04-24T01:00:20;57.97;51.37;73.77;;
69670;Laerm;66535;52.370;4.832;2023-04-24T01:00:51;57.40;52.45;77.04;;
69670;Laerm;66535;52.370;4.832;2023-04-24T01:01:24;57.66;52.76;73.21;;
69670;Laerm;66535;52.370;4.832;2023-04-24T01:01:56;60.05;54.03;76.47;;
69670;Laerm;66535;52.370;4.832;2023-04-24T01:02:27;58.01;53.49;74.45;;
69670;Laerm;66535;52.370;4.832;2023-04-24T01:02:59;57.41;53.52;77.18;;
69670;Laerm;66535;52.370;4.832;2023-04-24T01:03:33;57.13;52.45;72.15;;
69670;Laerm;66535;52.370;4.832;2023-04-24T01:04:07;61.00;53.44;86.15;;
69670;Laerm;66535;52.370;4.832;2023-04-24T01:04:41;60.54;53.84;85.54;;
69670;Laerm;66535;52.370;4.832;2023-04-24T01:05:14;57.63;53.47;74.39;;
69670;Laerm;66535;52.370;4.832;2023-04-24T01:05:46;56.58;52.51;75.07;;
69670;Laerm;66535;52.370;4.832;2023-04-24T01:06:17;58.17;52.92;71.84;;
69670;Laerm;66535;52.370;4.832;2023-04-24T01:06:50;58.22;51.66;76.45;;
69670;Laerm;66535;52.370;4.832;2023-04-24T01:07:22;57.57;51.79;76.72;;
69670;Laerm;66535;52.370;4.832;2023-04-24T01:07:54;60.99;51.38;87.76;;
69670;Laerm;66535;52.370;4.832;2023-04-24T01:08:26;60.03;49.09;86.99;;
69670;Laerm;66535;52.370;4.832;2023-04-24T01:08:59;54.91;50.29;71.92;;
69670;Laerm;66535;52.370;4.832;2023-04-24T01:09:31;56.99;52.35;75.26;;
69670;Laerm;66535;52.370;4.832;2023-04-24T01:10:02;56.02;51.26;71.57;;
69670;Laerm;66535;52.370;4.832;2023-04-24T01:10:35;55.70;51.05;69.71;;
69670;Laerm;66535;52.370;4.832;2023-04-24T01:11:07;56.76;50.02;76.46;;
69670;Laerm;66535;52.370;4.832;2023-04-24T01:11:38;57.26;50.78;74.70;;
69670;Laerm;66535;52.370;4.832;2023-04-24T01:12:13;56.89;52.55;70.85;;
69670;Laerm;66535;52.370;4.832;2023-04-24T01:12:44;58.68;52.25;78.00;;
69670;Laerm;66535;52.370;4.832;2023-04-24T01:13:15;56.73;52.34;75.58;;
69670;Laerm;66535;52.370;4.832;2023-04-24T01:13:48;57.25;51.74;75.05;;
69670;Laerm;66535;52.370;4.832;2023-04-24T01:14:19;56.15;50.75;75.29;;
69670;Laerm;66535;52.370;4.832;2023-04-24T01:14:50;56.89;50.79;80.08;;
69670;Laerm;66535;52.370;4.832;2023-04-24T01:15:23;55.92;50.61;73.98;;
69670;Laerm;66535;52.370;4.832;2023-04-24T01:15:54;54.56;49.92;72.10;;
69670;Laerm;66535;52.370;4.832;2023-04-24T01:16:25;55.38;50.31;74.28;;
69670;Laerm;66535;52.370;4.832;2023-04-24T01:16:56;54.61;49.90;75.69;;
69670;Laerm;66535;52.370;4.832;2023-04-24T01:17:29;56.50;51.07;74.13;;
69670;Laerm;66535;52.370;4.832;2023-04-24T01:18:00;55.78;51.93;66.66;;
69670;Laerm;66535;52.370;4.832;2023-04-24T01:18:33;57.39;52.18;77.43;;
69670;Laerm;66535;52.370;4.832;2023-04-24T01:19:05;56.82;51.92;77.36;;
69670;Laerm;66535;52.370;4.832;2023-04-24T01:19:37;56.49;50.08;75.82;;
69670;Laerm;66535;52.370;4.832;2023-04-24T01:20:09;57.03;48.58;83.90;;
69670;Laerm;66535;52.370;4.832;2023-04-24T01:20:43;54.84;50.04;72.90;;
69670;Laerm;66535;52.370;4.832;2023-04-24T01:21:16;55.01;49.43;74.68;;
69670;Laerm;66535;52.370;4.832;2023-04-24T01:21:49;52.47;48.07;72.39;;
69670;Laerm;66535;52.370;4.832;2023-04-24T01:22:24;51.22;46.67;65.21;;
69670;Laerm;66535;52.370;4.832;2023-04-24T01:22:55;54.95;49.51;72.01;;
69670;Laerm;66535;52.370;4.832;2023-04-24T01:23:27;54.26;50.69;71.15;;
69670;Laerm;66535;52.370;4.832;2023-04-24T01:23:59;54.12;48.88;76.28;;
69670;Laerm;66535;52.370;4.832;2023-04-24T01:24:30;53.71;49.09;71.49;;
69670;Laerm;66535;52.370;4.832;2023-04-24T01:25:02;56.83;50.92;76.82;;
69670;Laerm;66535;52.370;4.832;2023-04-24T01:25:35;59.13;50.95;79.99;;
69670;Laerm;66535;52.370;4.832;2023-04-24T01:26:06;56.39;49.69;75.13;;
69670;Laerm;66535;52.370;4.832;2023-04-24T01:26:37;59.56;52.44;83.41;;
69670;Laerm;66535;52.370;4.832;2023-04-24T01:27:09;59.34;52.27;81.54;;
69670;Laerm;66535;52.370;4.832;2023-04-24T01:27:41;59.21;54.74;80.54;;
69670;Laerm;66535;52.370;4.832;2023-04-24T01:28:12;58.31;54.68;74.57;;
69670;Laerm;66535;52.370;4.832;2023-04-24T01:28:44;59.54;54.83;81.05;;
69670;Laerm;66535;52.370;4.832;2023-04-24T01:29:16;58.60;53.25;72.43;;
69670;Laerm;66535;52.370;4.832;2023-04-24T01:29:47;59.65;52.10;82.98;;
69670;Laerm;66535;52.370;4.832;2023-04-24T01:30:20;56.73;51.04;76.53;;
69670;Laerm;66535;52.370;4.832;2023-04-24T01:30:51;56.10;51.03;76.26;;
69670;Laerm;66535;52.370;4.832;2023-04-24T01:31:23;56.29;51.75;75.17;;
69670;Laerm;66535;52.370;4.832;2023-04-24T01:31:55;56.03;51.60;71.44;;
69670;Laerm;66535;52.370;4.832;2023-04-24T01:32:27;54.43;49.18;70.79;;
69670;Laerm;66535;52.370;4.832;2023-04-24T01:32:58;54.01;49.44;68.70;;
69670;Laerm;66535;52.370;4.832;2023-04-24T01:33:31;60.12;49.58;84.46;;
69670;Laerm;66535;52.370;4.832;2023-04-24T01:34:02;57.93;51.48;74.61;;
69670;Laerm;66535;52.370;4.832;2023-04-24T01:34:34;59.00;51.41;84.74;;
69670;Laerm;66535;52.370;4.832;2023-04-24T01:35:07;55.14;50.43;73.16;;
69670;Laerm;66535;52.370;4.832;2023-04-24T01:35:38;56.34;51.10;77.96;;
69670;Laerm;66535;52.370;4.832;2023-04-24T01:36:11;57.64;52.10;79.81;;
69670;Laerm;66535;52.370;4.832;2023-04-24T01:36:42;57.62;51.85;80.78;;
69670;Laerm;66535;52.370;4.832;2023-04-24T01:37:15;57.93;51.26;75.35;;
69670;Laerm;66535;52.370;4.832;2023-04-24T01:37:47;55.72;51.46;70.92;;
69670;Laerm;66535;52.370;4.832;2023-04-24T01:38:19;59.95;51.24;81.76;;
69670;Laerm;66535;52.370;4.832;2023-04-24T01:38:51;56.97;49.11;73.91;;
69670;Laerm;66535;52.370;4.832;2023-04-24T01:39:22;55.85;49.32;72.72;;
69670;Laerm;66535;52.370;4.832;2023-04-24T01:39:54;54.36;48.13;75.92;;
69670;Laerm;66535;52.370;4.832;2023-04-24T01:40:26;54.15;46.94;77.87;;
69670;Laerm;66535;52.370;4.832;2023-04-24T01:40:57;55.34;47.52;81.66;;
69670;Laerm;66535;52.370;4.832;2023-04-24T01:41:29;53.96;48.35;75.59;;
69670;Laerm;66535;52.370;4.832;2023-04-24T01:42:01;53.72;47.84;77.10;;
69670;Laerm;66535;52.370;4.832;2023-04-24T01:42:34;52.29;47.21;66.27;;
69670;Laerm;66535;52.370;4.832;2023-04-24T01:43:05;53.08;47.72;73.57;;
69670;Laerm;66535;52.370;4.832;2023-04-24T01:43:37;53.82;47.65;75.79;;
69670;Laerm;66535;52.370;4.832;2023-04-24T01:44:09;51.99;46.77;71.23;;
69670;Laerm;66535;52.370;4.832;2023-04-24T01:44:40;52.08;45.81;71.19;;
69670;Laerm;66535;52.370;4.832;2023-04-24T01:45:12;51.94;46.51;73.86;;
69670;Laerm;66535;52.370;4.832;2023-04-24T01:45:44;53.66;46.76;77.69;;
69670;Laerm;66535;52.370;4.832;2023-04-24T01:46:16;50.39;46.00;70.05;;
69670;Laerm;66535;52.370;4.832;2023-04-24T01:46:47;51.11;45.74;70.12;;
69670;Laerm;66535;52.370;4.832;2023-04-24T01:47:19;50.78;46.28;65.75;;
69670;Laerm;66535;52.370;4.832;2023-04-24T01:47:51;51.41;46.02;75.07;;
69670;Laerm;66535;52.370;4.832;2023-04-24T01:48:22;50.97;45.14;69.96;;
69670;Laerm;66535;52.370;4.832;2023-04-24T01:48:54;49.97;45.82;67.23;;
69670;Laerm;66535;52.370;4.832;2023-04-24T01:49:27;50.77;45.21;64.85;;
69670;Laerm;66535;52.370;4.832;2023-04-24T01:49:58;53.44;46.12;69.18;;
69670;Laerm;66535;52.370;4.832;2023-04-24T01:50:30;52.25;47.14;71.72;;
69670;Laerm;66535;52.370;4.832;2023-04-24T01:51:02;49.75;44.78;61.67;;
69670;Laerm;66535;52.370;4.832;2023-04-24T01:51:33;49.39;45.06;66.47;;
69670;Laerm;66535;52.370;4.832;2023-04-24T01:52:06;49.33;44.65;66.23;;
69670;Laerm;66535;52.370;4.832;2023-04-24T01:52:37;50.42;43.95;73.30;;
69670;Laerm;66535;52.370;4.832;2023-04-24T01:53:09;49.46;44.35;71.08;;
69670;Laerm;66535;52.370;4.832;2023-04-24T01:53:42;48.31;43.71;63.79;;
69670;Laerm;66535;52.370;4.832;2023-04-24T01:54:13;48.82;43.89;63.45;;
69670;Laerm;66535;52.370;4.832;2023-04-24T01:54:44;48.50;44.48;60.51;;
69670;Laerm;66535;52.370;4.832;2023-04-24T01:55:17;50.91;44.14;66.93;;
69670;Laerm;66535;52.370;4.832;2023-04-24T01:55:48;50.29;44.17;68.77;;
69670;Laerm;66535;52.370;4.832;2023-04-24T01:56:19;49.83;43.49;67.14;;
69670;Laerm;66535;52.370;4.832;2023-04-24T01:56:51;57.14;41.94;86.03;;
69670;Laerm;66535;52.370;4.832;2023-04-24T01:57:23;49.51;45.24;59.84;;
69670;Laerm;66535;52.370;4.832;2023-04-24T01:57:55;51.99;46.17;71.90;;
69670;Laerm;66535;52.370;4.832;2023-04-24T01:58:27;51.45;46.30;69.87;;
69670;Laerm;66535;52.370;4.832;2023-04-24T01:58:59;50.71;46.13;68.44;;
69670;Laerm;66535;52.370;4.832;2023-04-24T01:59:30;53.05;46.38;73.86;;
69670;Laerm;66535;52.370;4.832;2023-04-24T02:00:05;50.85;46.10;72.02;;
69670;Laerm;66535;52.370;4.832;2023-04-24T02:00:37;50.67;46.66;63.11;;
69670;Laerm;66535;52.370;4.832;2023-04-24T02:01:08;49.79;44.65;72.19;;
69670;Laerm;66535;52.370;4.832;2023-04-24T02:01:40;49.12;44.60;66.56;;
69670;Laerm;66535;52.370;4.832;2023-04-24T02:02:11;50.00;45.76;66.16;;
69670;Laerm;66535;52.370;4.832;2023-04-24T02:02:43;55.60;46.49;80.39;;
69670;Laerm;66535;52.370;4.832;2023-04-24T02:03:15;51.44;46.77;71.73;;
69670;Laerm;66535;52.370;4.832;2023-04-24T02:03:46;52.37;48.03;70.83;;
69670;Laerm;66535;52.370;4.832;2023-04-24T02:04:18;51.25;47.20;66.15;;
69670;Laerm;66535;52.370;4.832;2023-04-24T02:04:49;52.86;47.31;72.64;;
69670;Laerm;66535;52.370;4.832;2023-04-24T02:05:21;51.51;47.84;62.27;;
69670;Laerm;66535;52.370;4.832;2023-04-24T02:05:53;52.30;47.05;68.88;;
69670;Laerm;66535;52.370;4.832;2023-04-24T02:06:24;53.50;48.16;70.21;;
69670;Laerm;66535;52.370;4.832;2023-04-24T02:06:55;52.73;47.45;74.78;;
69670;Laerm;66535;52.370;4.832;2023-04-24T02:07:28;53.36;47.34;74.45;;
69670;Laerm;66535;52.370;4.832;2023-04-24T02:07:59;54.75;49.22;72.74;;
69670;Laerm;66535;52.370;4.832;2023-04-24T02:08:32;55.67;49.68;75.84;;
69670;Laerm;66535;52.370;4.832;2023-04-24T02:09:03;54.70;49.10;78.42;;
69670;Laerm;66535;52.370;4.832;2023-04-24T02:09:35;52.66;48.24;64.68;;
69670;Laerm;66535;52.370;4.832;2023-04-24T02:10:07;51.24;47.86;64.48;;
69670;Laerm;66535;52.370;4.832;2023-04-24T02:10:38;51.87;47.19;66.23;;
69670;Laerm;66535;52.370;4.832;2023-04-24T02:11:10;52.95;47.86;72.82;;
69670;Laerm;66535;52.370;4.832;2023-04-24T02:11:41;54.98;49.07;77.54;;
69670;Laerm;66535;52.370;4.832;2023-04-24T02:12:13;55.59;49.09;75.00;;
69670;Laerm;66535;52.370;4.832;2023-04-24T02:12:44;54.73;49.35;79.38;;
69670;Laerm;66535;52.370;4.832;2023-04-24T02:13:16;56.06;49.34;80.52;;
69670;Laerm;66535;52.370;4.832;2023-04-24T02:13:48;55.62;49.34;72.26;;
69670;Laerm;66535;52.370;4.832;2023-04-24T02:14:19;53.47;48.73;70.52;;
69670;Laerm;66535;52.370;4.832;2023-04-24T02:14:51;53.86;49.06;74.38;;
69670;Laerm;66535;52.370;4.832;2023-04-24T02:15:22;53.70;48.49;73.91;;
69670;Laerm;66535;52.370;4.832;2023-04-24T02:15:53;52.65;48.27;72.94;;
69670;Laerm;66535;52.370;4.832;2023-04-24T02:16:26;55.52;48.78;81.31;;
69670;Laerm;66535;52.370;4.832;2023-04-24T02:16:57;55.36;48.61;76.66;;
69670;Laerm;66535;52.370;4.832;2023-04-24T02:17:28;55.70;49.98;73.44;;
69670;Laerm;66535;52.370;4.832;2023-04-24T02:18:01;53.66;48.98;70.23;;
69670;Laerm;66535;52.370;4.832;2023-04-24T02:18:32;57.46;49.40;79.84;;
69670;Laerm;66535;52.370;4.832;2023-04-24T02:19:04;53.60;48.81;73.54;;
69670;Laerm;66535;52.370;4.832;2023-04-24T02:19:35;52.87;48.77;69.72;;
69670;Laerm;66535;52.370;4.832;2023-04-24T02:20:07;52.93;47.71;74.35;;
69670;Laerm;66535;52.370;4.832;2023-04-24T02:20:38;52.93;48.99;72.94;;
69670;Laerm;66535;52.370;4.832;2023-04-24T02:21:10;54.24;48.79;75.96;;
69670;Laerm;66535;52.370;4.832;2023-04-24T02:21:41;58.55;48.33;85.82;;
69670;Laerm;66535;52.370;4.832;2023-04-24T02:22:13;53.34;47.62;69.75;;
69670;Laerm;66535;52.370;4.832;2023-04-24T02:22:44;53.00;48.26;75.21;;
69670;Laerm;66535;52.370;4.832;2023-04-24T02:23:15;53.76;47.13;71.18;;
69670;Laerm;66535;52.370;4.832;2023-04-24T02:23:49;51.86;46.75;70.07;;
69670;Laerm;66535;52.370;4.832;2023-04-24T02:24:20;54.54;48.38;76.07;;
69670;Laerm;66535;52.370;4.832;2023-04-24T02:24:51;54.33;46.83;76.94;;
69670;Laerm;66535;52.370;4.832;2023-04-24T02:25:23;56.37;46.37;83.65;;
69670;Laerm;66535;52.370;4.832;2023-04-24T02:25:55;51.85;46.84;65.79;;
69670;Laerm;66535;52.370;4.832;2023-04-24T02:26:26;53.57;47.02;76.25;;
69670;Laerm;66535;52.370;4.832;2023-04-24T02:26:58;53.26;46.94;73.81;;
69670;Laerm;66535;52.370;4.832;2023-04-24T02:27:30;55.08;48.15;73.88;;
69670;Laerm;66535;52.370;4.832;2023-04-24T02:28:01;55.58;48.26;78.14;;
69670;Laerm;66535;52.370;4.832;2023-04-24T02:28:33;52.73;48.24;68.28;;
69670;Laerm;66535;52.370;4.832;2023-04-24T02:29:04;53.22;47.50;71.38;;
69670;Laerm;66535;52.370;4.832;2023-04-24T02:29:36;51.03;46.26;67.28;;
69670;Laerm;66535;52.370;4.832;2023-04-24T02:30:09;52.83;47.25;71.30;;
69670;Laerm;66535;52.370;4.832;2023-04-24T02:30:40;52.08;47.47;66.72;;
69670;Laerm;66535;52.370;4.832;2023-04-24T02:31:12;51.74;47.04;69.57;;
69670;Laerm;66535;52.370;4.832;2023-04-24T02:31:44;55.45;48.45;76.15;;
69670;Laerm;66535;52.370;4.832;2023-04-24T02:32:15;53.75;47.79;73.04;;
69670;Laerm;66535;52.370;4.832;2023-04-24T02:32:47;52.68;48.18;66.93;;
69670;Laerm;66535;52.370;4.832;2023-04-24T02:33:18;55.29;48.26;75.17;;
69670;Laerm;66535;52.370;4.832;2023-04-24T02:33:50;53.54;46.74;76.38;;
69670;Laerm;66535;52.370;4.832;2023-04-24T02:34:21;52.17;44.93;71.53;;
69670;Laerm;66535;52.370;4.832;2023-04-24T02:34:53;50.85;45.69;69.12;;
69670;Laerm;66535;52.370;4.832;2023-04-24T02:35:26;50.16;44.92;70.12;;
69670;Laerm;66535;52.370;4.832;2023-04-24T02:35:57;52.59;47.61;72.22;;
69670;Laerm;66535;52.370;4.832;2023-04-24T02:36:28;48.87;43.73;66.76;;
69670;Laerm;66535;52.370;4.832;2023-04-24T02:37:01;48.39;42.69;67.46;;
69670;Laerm;66535;52.370;4.832;2023-04-24T02:37:32;50.47;42.04;75.35;;
69670;Laerm;66535;52.370;4.832;2023-04-24T02:38:03;47.76;42.84;68.58;;
69670;Laerm;66535;52.370;4.832;2023-04-24T02:38:35;46.42;42.36;64.14;;
69670;Laerm;66535;52.370;4.832;2023-04-24T02:39:08;47.49;41.97;67.64;;
69670;Laerm;66535;52.370;4.832;2023-04-24T02:39:39;48.97;43.25;68.89;;
69670;Laerm;66535;52.370;4.832;2023-04-24T02:40:12;46.69;42.71;59.11;;
69670;Laerm;66535;52.370;4.832;2023-04-24T02:40:43;47.36;42.47;63.06;;
69670;Laerm;66535;52.370;4.832;2023-04-24T02:41:14;47.13;42.57;64.79;;
69670;Laerm;66535;52.370;4.832;2023-04-24T02:41:46;48.77;43.45;63.72;;
69670;Laerm;66535;52.370;4.832;2023-04-24T02:42:18;47.25;42.41;65.18;;
69670;Laerm;66535;52.370;4.832;2023-04-24T02:42:49;47.79;43.01;62.18;;
69670;Laerm;66535;52.370;4.832;2023-04-24T02:43:20;52.97;45.43;75.30;;
69670;Laerm;66535;52.370;4.832;2023-04-24T02:43:52;50.52;45.74;68.86;;
69670;Laerm;66535;52.370;4.832;2023-04-24T02:44:23;49.08;44.65;65.63;;
69670;Laerm;66535;52.370;4.832;2023-04-24T02:44:54;48.63;43.98;68.37;;
69670;Laerm;66535;52.370;4.832;2023-04-24T02:45:26;47.21;43.09;64.39;;
69670;Laerm;66535;52.370;4.832;2023-04-24T02:45:58;47.50;43.34;62.66;;
69670;Laerm;66535;52.370;4.832;2023-04-24T02:46:29;48.16;44.11;66.34;;
69670;Laerm;66535;52.370;4.832;2023-04-24T02:47:00;50.27;43.93;74.88;;
69670;Laerm;66535;52.370;4.832;2023-04-24T02:47:33;48.63;44.78;66.32;;
69670;Laerm;66535;52.370;4.832;2023-04-24T02:48:04;52.06;46.40;65.49;;
69670;Laerm;66535;52.370;4.832;2023-04-24T02:48:35;50.30;45.70;65.88;;
69670;Laerm;66535;52.370;4.832;2023-04-24T02:49:07;49.76;44.59;67.18;;
69670;Laerm;66535;52.370;4.832;2023-04-24T02:49:38;49.71;44.72;66.77;;
69670;Laerm;66535;52.370;4.832;2023-04-24T02:50:10;50.27;44.97;72.43;;
69670;Laerm;66535;52.370;4.832;2023-04-24T02:50:42;50.94;44.88;73.92;;
69670;Laerm;66535;52.370;4.832;2023-04-24T02:51:13;49.73;44.55;67.71;;
69670;Laerm;66535;52.370;4.832;2023-04-24T02:51:44;50.71;45.73;70.01;;
69670;Laerm;66535;52.370;4.832;2023-04-24T02:52:15;49.32;44.55;64.76;;
69670;Laerm;66535;52.370;4.832;2023-04-24T02:52:48;52.53;44.71;79.65;;
69670;Laerm;66535;52.370;4.832;2023-04-24T02:53:19;50.74;45.49;71.36;;
69670;Laerm;66535;52.370;4.832;2023-04-24T02:53:50;49.22;45.11;63.64;;
69670;Laerm;66535;52.370;4.832;2023-04-24T02:54:24;52.50;45.83;74.76;;
69670;Laerm;66535;52.370;4.832;2023-04-24T02:54:55;52.89;46.77;73.50;;
69670;Laerm;66535;52.370;4.832;2023-04-24T02:55:26;56.35;47.47;83.01;;
69670;Laerm;66535;52.370;4.832;2023-04-24T02:55:59;53.39;48.23;75.41;;
69670;Laerm;66535;52.370;4.832;2023-04-24T02:56:30;53.70;47.87;72.44;;
69670;Laerm;66535;52.370;4.832;2023-04-24T02:57:01;53.55;48.68;67.59;;
69670;Laerm;66535;52.370;4.832;2023-04-24T02:57:34;54.97;50.97;72.27;;
69670;Laerm;66535;52.370;4.832;2023-04-24T02:58:05;54.89;49.90;73.00;;